Portada
METAR-TAF:

METAR-TAF

Aeroports :

Alofi, Niue

latitud: 19-04S, longitud: 169-55W, altitud: 20 m

Observació

L'informe es va fer fa 11 minuts, a les 11:00 UTC
Vent 8 kt del Est/Sud-Est
Temperatura 24°C
Humitat 94%
Pressió 1014 hPa

METAR: NIUE 231100Z AUTO 12008KT // 24/23 Q1014

Hora: 00:11 (11:11 UTC)

Pronòstic

L'informe es va fer fa 12 hores i 8 minuts, a les 23:03 UTC
Pronòstic vàlid del 23 a les 00 UTC al 23 a les 24 UTC
Vent 12 kt del Est/Sud-Est
Visibilitat 10 km o més
Cel ennuvolat a una alçada de 1800 ft
Probabilitat 40% :
Temporalment
l' 23 a les 00 UTC al 23 a les 04 UTC
Vent 15 kt del Est/Sud-Est amb ràfegues de 25 kt
Visibilitat: 5000 m
Cel ennuvolat a una alçada de 1500 ft
xàfecs de pluja

TAF: NIUE 222303Z 2300/2324 11012KT 9999 BKN018 PROB40 TEMPO 2300/2304 11015G25KT 5000 SHRA BKN015

Observacions i pronòstics meteorològics de més de 4000 aeroports (METAR i TAF).

Les estacions disponibles són els punts grocs i vermells al mapa.

Posi el ratolí al punt desitjat per veure el nom de l'estació.

Feu clic per veure les observacions i els pronòstics meteorològics.

Per canviar el mapa: feu clic els botons verds amb una creu de color negre per apropar; al botó verd amb un guió per allunyar la imatge; o en les fletxes verdes per a mapes adjacents.


METAR-TAF: